Nova Bandeirantes, Brazil
Current Conditions -  °F | °C
As of 2:00 PM on Sunday 23 Nov 2014 (Local Time) from SBAT Reporting Station
Thunderstorm Thunderstorm  
Wind Chill: 88°   Ceiling: Unl
Heat Index: 98°   Visibility: 6mi
Dew Point: 75°   Wind: 7mph
Humidity: 66%   Direction: 220°SW
Pressure: 29.88"   Gusts: NA
Location:  9.85°S, 57.81°W
Report Text: SBAT 231700Z 22006KT 9999 TS VCSH SCT020 FEW030CB 31/24 Q1012
Loading
Personal Weather Stations






























Interactive Weather Map New forecast layout! Learn more

10-Day Weather Forecast

Advertisements
Track Severe Weather on mobile